首页
METAR-TAF:

METAR-TAF

机场 :

Savannah/Hilton Head International Airport

薩凡納, 喬治亞, 美国

纬度: 32-07-08N, 经度: 081-12-08W, 海拔: 15米

当前天气观测

该预报发布于1小时和5分钟前的09:53 UTC
风速5节,风向西南
温度 25°C
湿度 83%
气压 1014 hPa
能見度: 16.1公里
散云层高于20000英尺

METAR: KSAV 010953Z 22005KT 10SM SCT200 25/22 A2994 RMK AO2 SLP138 T02500217

时间: 06:58 (10:58 UTC)

预报

该预报发布于5小时和24分钟前的05:34 UTC
预报有效从01日的 06点(UTC)到 02日的 06点(UTC)
风速8节,风向南转西南
能見度: 10公里
少量云层高于5000英尺
从 01日的 1400点(UTC)
风速10节,风向西
能見度: 10公里
少量云层高于3000英尺
从 01日的 1800点(UTC)
风速12节,风向西,有时为18节阵风
能見度: 10公里
散云层高于4000英尺
从 02日的 0000点(UTC)
风速9节,风向西
能見度: 10公里
散云层高于5000英尺, 积雨云.
附近有雷暴
从 02日的 0400点(UTC)
风速5节,风向西转西北
能見度: 10公里
散云层高于2000英尺
多云层高于8000英尺

TAF: KSAV 010534Z 0106/0206 21008KT P6SM FEW050 FM011400 27010KT P6SM FEW030 FM011800 26012G18KT P6SM SCT040 FM020000 26009KT P6SM VCTS SCT050CB FM020400 29005KT P6SM SCT020 BKN080

超过4000个机场的气象观测和天气预报(METAR&TAF报告)。

可查询的气象台以黄色和红色小点在地图上表示。

将鼠标移到小点上方,可查看气象台名称。

然后点击查看天气观测和预报。

如需切换地图:点击带黑十字的绿色按钮放大地图;点击带横线的绿色按钮缩小地图;或者点击绿色箭头查看邻近地区的地图。


METAR-TAF: